createdAt,value
2022-10-31T00:00:53.638Z,54.21
2022-10-31T00:03:39.648Z,54.58
2022-10-31T00:06:25.420Z,54.61
2022-10-31T00:09:11.284Z,54.03
2022-10-31T00:11:57.204Z,54.36
2022-10-31T00:14:43.209Z,54.31
2022-10-31T00:17:29.000Z,53.64
2022-10-31T00:20:14.928Z,53.66
2022-10-31T00:23:00.782Z,53.00
2022-10-31T00:25:46.777Z,53.25
2022-10-31T00:28:32.706Z,52.81
2022-10-31T00:31:20.599Z,51.88
2022-10-31T00:34:06.665Z,52.18
2022-10-31T00:36:52.584Z,52.28
2022-10-31T00:39:39.071Z,53.74
2022-10-31T00:42:25.067Z,58.16
2022-10-31T00:45:11.130Z,59.30
2022-10-31T00:47:57.323Z,62.22
2022-10-31T00:50:43.428Z,63.37
2022-10-31T00:53:29.246Z,62.54
2022-10-31T00:56:15.120Z,64.44
2022-10-31T00:59:01.078Z,62.94
2022-10-31T01:01:47.004Z,63.77
2022-10-31T01:04:33.366Z,67.47
2022-10-31T01:07:19.352Z,68.07
2022-10-31T01:10:05.214Z,70.65
2022-10-31T01:12:51.205Z,70.40
2022-10-31T01:15:37.092Z,69.31
2022-10-31T01:18:22.812Z,74.03
2022-10-31T01:21:08.875Z,74.64
2022-10-31T01:23:54.726Z,75.02
2022-10-31T01:26:40.759Z,72.63
2022-10-31T01:29:26.646Z,70.78
2022-10-31T01:32:12.725Z,70.42
2022-10-31T01:35:00.637Z,71.51
2022-10-31T01:37:46.518Z,72.47
2022-10-31T01:40:32.383Z,71.57
2022-10-31T01:43:18.273Z,69.80
2022-10-31T01:46:04.098Z,65.78
2022-10-31T01:48:49.996Z,64.37
2022-10-31T01:51:37.945Z,65.34
2022-10-31T01:54:23.816Z,64.72
2022-10-31T01:57:09.550Z,65.79
2022-10-31T01:59:55.644Z,66.29
2022-10-31T02:02:41.612Z,63.56
2022-10-31T02:05:27.913Z,62.34
2022-10-31T02:08:13.845Z,61.05
2022-10-31T02:10:59.822Z,60.41
2022-10-31T02:13:45.597Z,61.84
2022-10-31T02:16:31.346Z,64.21
2022-10-31T02:19:17.254Z,65.03
2022-10-31T02:22:03.303Z,66.61
2022-10-31T02:24:48.989Z,66.59
2022-10-31T02:27:34.858Z,68.12
2022-10-31T02:30:20.533Z,67.85
2022-10-31T02:33:06.386Z,66.36
2022-10-31T02:35:52.263Z,63.99
2022-10-31T02:38:38.172Z,63.85
2022-10-31T02:41:24.113Z,64.69
2022-10-31T02:44:09.976Z,63.19
2022-10-31T02:46:55.870Z,62.64
2022-10-31T02:49:41.689Z,62.41
2022-10-31T02:52:27.489Z,60.53
2022-10-31T02:55:13.452Z,63.07
2022-10-31T02:57:59.573Z,64.76
2022-10-31T03:00:47.102Z,64.33
2022-10-31T03:03:35.640Z,62.40
2022-10-31T03:06:21.708Z,63.26
2022-10-31T03:09:07.654Z,63.26
2022-10-31T03:11:53.531Z,63.76
2022-10-31T03:14:39.375Z,63.91
2022-10-31T03:17:25.191Z,62.93
2022-10-31T03:20:11.233Z,62.38
2022-10-31T03:22:57.032Z,60.52
2022-10-31T03:25:42.814Z,61.44
2022-10-31T03:28:28.765Z,64.28
2022-10-31T03:31:14.505Z,61.88
2022-10-31T03:34:00.458Z,64.37
2022-10-31T03:36:46.283Z,65.38
2022-10-31T03:39:32.187Z,64.55
2022-10-31T03:42:17.963Z,61.94
2022-10-31T03:45:03.784Z,61.60
2022-10-31T03:47:49.591Z,60.37
2022-10-31T03:50:35.597Z,60.46
2022-10-31T03:53:21.399Z,63.96
2022-10-31T03:56:07.297Z,64.36
2022-10-31T03:58:53.036Z,61.42
2022-10-31T04:01:39.162Z,60.41
2022-10-31T04:04:25.078Z,62.20
2022-10-31T04:07:11.065Z,65.85
2022-10-31T04:09:59.346Z,62.74
2022-10-31T04:13:00.091Z,60.27
2022-10-31T04:15:46.117Z,58.85
2022-10-31T04:18:32.130Z,57.43
2022-10-31T04:21:17.991Z,56.26
2022-10-31T04:24:03.877Z,57.48
2022-10-31T04:26:49.641Z,64.09
2022-10-31T04:29:35.457Z,66.85
2022-10-31T04:32:21.390Z,69.59
2022-10-31T04:35:07.534Z,67.50
2022-10-31T04:37:53.474Z,68.12
2022-10-31T04:40:39.357Z,70.64
2022-10-31T04:43:25.113Z,70.23
2022-10-31T04:46:11.013Z,70.38
2022-10-31T04:48:56.925Z,70.60
2022-10-31T04:51:42.715Z,70.18
2022-10-31T04:54:28.595Z,70.83
2022-10-31T04:57:14.552Z,69.15
2022-10-31T05:00:00.349Z,68.84
2022-10-31T05:02:46.153Z,71.02
2022-10-31T05:05:31.925Z,75.95
2022-10-31T05:08:17.848Z,75.09
2022-10-31T05:11:04.728Z,72.34
2022-10-31T05:13:50.757Z,72.18
2022-10-31T05:16:36.712Z,72.82
2022-10-31T05:19:22.537Z,75.45
2022-10-31T05:22:08.530Z,75.03
2022-10-31T05:24:54.475Z,71.98
2022-10-31T05:27:40.270Z,70.54
2022-10-31T05:30:26.129Z,69.15
2022-10-31T05:33:12.004Z,68.97
2022-10-31T05:35:57.675Z,71.50
2022-10-31T05:38:43.457Z,75.15
2022-10-31T05:41:29.331Z,73.96
2022-10-31T05:44:15.109Z,76.07
2022-10-31T05:47:00.833Z,74.53
2022-10-31T05:49:46.654Z,69.01
2022-10-31T05:52:32.569Z,70.12
2022-10-31T05:55:18.405Z,68.80
2022-10-31T05:58:04.426Z,69.19
2022-10-31T06:00:50.754Z,70.86
2022-10-31T06:03:36.544Z,69.21
2022-10-31T06:06:22.392Z,72.29
2022-10-31T06:09:08.308Z,71.14
2022-10-31T06:11:54.269Z,69.00
2022-10-31T06:14:40.049Z,67.09
2022-10-31T06:17:25.917Z,71.00
2022-10-31T06:20:11.788Z,70.16
2022-10-31T06:22:58.094Z,74.37
2022-10-31T06:25:44.197Z,79.04
2022-10-31T06:28:31.160Z,78.13
2022-10-31T06:31:17.530Z,76.98
2022-10-31T06:34:03.220Z,75.83
2022-10-31T06:36:49.113Z,76.89
2022-10-31T06:39:34.993Z,77.87
2022-10-31T06:42:20.858Z,77.30
2022-10-31T06:45:06.715Z,77.41
2022-10-31T06:48:15.420Z,78.34
2022-10-31T06:51:00.436Z,78.33
2022-10-31T06:53:46.362Z,74.54
2022-10-31T06:56:32.285Z,71.57
2022-10-31T06:59:18.135Z,68.38
2022-10-31T07:02:04.270Z,67.45
2022-10-31T07:04:50.651Z,69.77
2022-10-31T07:07:36.525Z,69.40
2022-10-31T07:10:22.440Z,66.50
2022-10-31T07:13:08.338Z,64.67
2022-10-31T07:15:54.295Z,63.99
2022-10-31T07:18:40.125Z,62.00
2022-10-31T07:21:26.056Z,60.08
2022-10-31T07:24:13.900Z,59.14
2022-10-31T07:29:51.018Z,56.71
2022-10-31T07:32:36.797Z,56.33
2022-10-31T07:35:22.667Z,55.18
2022-10-31T07:38:08.459Z,54.57
2022-10-31T07:40:54.361Z,53.71
2022-10-31T07:43:40.449Z,53.24
2022-10-31T07:46:26.594Z,53.02
2022-10-31T07:49:12.561Z,52.92
2022-10-31T07:51:58.303Z,51.60
2022-10-31T07:54:44.097Z,52.51
2022-10-31T07:57:34.486Z,52.00
2022-10-31T08:00:20.692Z,51.59
2022-10-31T08:03:06.356Z,50.82
2022-10-31T08:05:52.241Z,50.92
2022-10-31T08:08:38.510Z,52.16
2022-10-31T08:11:24.468Z,51.08
2022-10-31T08:14:10.287Z,51.72
2022-10-31T08:16:56.130Z,54.81
2022-10-31T08:19:41.960Z,54.92
2022-10-31T08:22:27.973Z,58.05
2022-10-31T08:25:13.816Z,59.60
2022-10-31T08:28:00.029Z,56.47
2022-10-31T08:30:46.203Z,52.57
2022-10-31T08:33:32.038Z,50.46
2022-10-31T08:36:17.948Z,51.05
2022-10-31T08:39:03.713Z,51.07
2022-10-31T08:41:49.562Z,50.41
2022-10-31T08:44:35.522Z,50.54
2022-10-31T08:47:21.360Z,50.47
2022-10-31T08:50:07.259Z,49.36
2022-10-31T08:53:04.612Z,47.88
2022-10-31T08:55:51.621Z,49.58
2022-10-31T08:58:40.255Z,48.48
2022-10-31T09:01:26.302Z,51.38
2022-10-31T09:04:12.395Z,58.96
2022-10-31T09:10:04.405Z,59.98
2022-10-31T09:12:50.253Z,59.56
2022-10-31T09:15:36.329Z,62.95
2022-10-31T09:18:22.156Z,61.53
2022-10-31T09:21:08.053Z,62.64
2022-10-31T09:23:54.060Z,62.48
2022-10-31T09:26:39.959Z,62.98
2022-10-31T09:29:25.949Z,63.91
2022-10-31T09:32:11.895Z,66.01
2022-10-31T09:34:57.850Z,64.19
2022-10-31T09:37:43.817Z,66.55
2022-10-31T09:40:29.672Z,65.62
2022-10-31T09:43:15.600Z,65.33
2022-10-31T09:46:01.536Z,63.95
2022-10-31T09:48:47.375Z,65.81
2022-10-31T09:51:33.297Z,65.70
2022-10-31T09:54:19.071Z,69.10
2022-10-31T09:57:05.054Z,66.41
2022-10-31T09:59:53.118Z,68.84
2022-10-31T10:02:38.947Z,68.33
2022-10-31T10:05:24.850Z,66.94
2022-10-31T10:08:10.728Z,65.05
2022-10-31T10:10:56.519Z,65.36
2022-10-31T10:13:42.513Z,65.06
2022-10-31T10:16:28.516Z,65.79
2022-10-31T10:19:14.371Z,69.25
2022-10-31T10:22:00.274Z,65.50
2022-10-31T10:24:46.136Z,65.00
2022-10-31T10:27:32.101Z,69.31
2022-10-31T10:30:18.014Z,69.11
2022-10-31T10:33:03.856Z,64.35
2022-10-31T10:35:49.694Z,68.40
2022-10-31T10:38:35.553Z,64.86
2022-10-31T10:41:21.471Z,61.75
2022-10-31T10:44:07.625Z,62.14
2022-10-31T10:46:53.316Z,62.51
2022-10-31T10:49:39.151Z,62.96
2022-10-31T10:52:40.939Z,63.16
2022-10-31T10:55:30.593Z,62.40
2022-10-31T10:58:16.473Z,64.86
2022-10-31T11:01:02.535Z,64.01
2022-10-31T11:03:48.825Z,66.37
2022-10-31T11:06:34.643Z,64.99
2022-10-31T11:09:20.712Z,64.19
2022-10-31T11:12:06.637Z,65.30
2022-10-31T11:14:52.603Z,64.99
2022-10-31T11:17:38.497Z,62.04
2022-10-31T11:20:24.342Z,61.15
2022-10-31T11:23:10.674Z,62.69
2022-10-31T11:25:57.149Z,61.20
2022-10-31T11:28:42.985Z,62.30
2022-10-31T11:31:28.926Z,62.87
2022-10-31T11:34:14.734Z,63.91
2022-10-31T11:37:00.845Z,61.74
2022-10-31T11:39:46.630Z,62.17
2022-10-31T11:42:32.676Z,61.93
2022-10-31T11:45:18.690Z,62.41
2022-10-31T11:48:04.758Z,65.57
2022-10-31T11:50:51.015Z,64.03
2022-10-31T11:53:36.953Z,61.40
2022-10-31T11:56:22.762Z,63.55
2022-10-31T11:59:08.540Z,62.53
2022-10-31T12:01:55.989Z,61.66
2022-10-31T12:04:42.265Z,60.79
2022-10-31T12:07:28.201Z,60.22
2022-10-31T12:10:14.167Z,61.12
2022-10-31T12:13:00.337Z,60.52
2022-10-31T12:15:46.823Z,61.79
2022-10-31T12:18:32.724Z,62.84
2022-10-31T12:21:18.667Z,59.86
2022-10-31T12:24:04.548Z,59.96
2022-10-31T12:26:50.334Z,58.63
2022-10-31T12:29:36.156Z,60.89
2022-10-31T12:32:21.964Z,58.26
2022-10-31T12:35:07.961Z,56.01
2022-10-31T12:37:55.891Z,54.34
2022-10-31T12:40:41.833Z,57.78
2022-10-31T12:43:27.740Z,63.01
2022-10-31T12:46:13.701Z,64.51
2022-10-31T12:48:59.517Z,60.48
2022-10-31T12:51:45.508Z,63.31
2022-10-31T12:54:31.343Z,63.46
2022-10-31T12:57:17.239Z,59.76
2022-10-31T13:00:03.235Z,64.03
2022-10-31T13:02:48.939Z,62.04
2022-10-31T13:05:34.801Z,63.55
2022-10-31T13:08:20.716Z,65.80
2022-10-31T13:11:06.623Z,66.35
2022-10-31T13:13:52.664Z,62.36
2022-10-31T13:16:38.461Z,62.04
2022-10-31T13:19:24.281Z,59.01
2022-10-31T13:22:10.155Z,61.22
2022-10-31T13:24:56.120Z,62.62
2022-10-31T13:27:42.092Z,60.55
2022-10-31T13:30:27.962Z,59.81
2022-10-31T13:33:14.078Z,65.12
2022-10-31T13:35:59.940Z,68.06
2022-10-31T13:38:45.729Z,69.71
2022-10-31T13:41:31.712Z,71.06
2022-10-31T13:44:17.582Z,64.75
2022-10-31T13:47:03.513Z,59.35
2022-10-31T13:49:49.550Z,59.19
2022-10-31T13:52:35.475Z,68.75
2022-10-31T13:55:21.316Z,65.36
2022-10-31T13:58:07.284Z,66.45
2022-10-31T14:00:53.168Z,62.54
2022-10-31T14:04:04.554Z,60.12
2022-10-31T14:06:45.182Z,59.62
2022-10-31T14:09:31.311Z,58.61
2022-10-31T14:12:17.248Z,57.21
2022-10-31T14:15:03.151Z,55.22
2022-10-31T14:17:49.012Z,54.59
2022-10-31T14:20:35.028Z,54.49
2022-10-31T14:23:20.988Z,53.97
2022-10-31T14:26:06.939Z,52.37
2022-10-31T14:28:52.867Z,51.92
2022-10-31T14:31:38.630Z,49.77
2022-10-31T14:34:24.480Z,50.26
2022-10-31T14:37:10.484Z,51.09
2022-10-31T14:39:56.286Z,50.57
2022-10-31T14:42:42.184Z,50.04
2022-10-31T14:45:27.930Z,48.49
2022-10-31T14:48:16.071Z,48.82
2022-10-31T14:51:01.957Z,48.86
2022-10-31T14:53:47.964Z,48.84
2022-10-31T14:56:35.753Z,49.31
2022-10-31T14:59:21.640Z,47.90
2022-10-31T15:02:07.602Z,46.70
2022-10-31T15:04:53.850Z,48.43
2022-10-31T15:07:39.793Z,47.94
2022-10-31T15:10:25.704Z,49.98
2022-10-31T15:13:11.732Z,50.66
2022-10-31T15:15:57.617Z,49.94
2022-10-31T15:18:43.300Z,50.38
2022-10-31T15:21:29.191Z,49.86
2022-10-31T15:24:17.140Z,49.85
2022-10-31T15:27:05.111Z,49.97
2022-10-31T15:29:51.317Z,50.66
2022-10-31T15:32:37.176Z,49.92
2022-10-31T15:35:23.129Z,49.73
2022-10-31T15:38:09.051Z,48.86
2022-10-31T15:40:54.874Z,48.01
2022-10-31T15:43:40.821Z,47.70
2022-10-31T15:46:26.843Z,47.68
2022-10-31T15:49:12.595Z,47.62
2022-10-31T15:54:49.744Z,49.35
2022-10-31T15:57:35.552Z,50.79
2022-10-31T16:00:21.483Z,51.78
2022-10-31T16:03:07.420Z,53.96
2022-10-31T16:05:53.285Z,54.17
2022-10-31T16:08:39.094Z,55.75
2022-10-31T16:11:24.862Z,56.87
2022-10-31T16:14:10.601Z,57.23
2022-10-31T16:16:56.414Z,59.96
2022-10-31T16:19:42.279Z,59.86
2022-10-31T16:22:28.300Z,60.12
2022-10-31T16:25:14.372Z,59.60
2022-10-31T16:28:00.238Z,58.34
2022-10-31T16:30:48.457Z,59.95
2022-10-31T16:33:34.654Z,59.68
2022-10-31T16:36:34.348Z,59.98
2022-10-31T16:39:21.168Z,62.03
2022-10-31T16:42:07.364Z,62.60
2022-10-31T16:44:53.364Z,62.61
2022-10-31T16:47:39.370Z,61.72
2022-10-31T16:50:25.183Z,62.18
2022-10-31T16:53:14.867Z,63.95
2022-10-31T16:56:01.105Z,63.08
2022-10-31T16:58:46.939Z,62.98
2022-10-31T17:01:32.910Z,62.13
2022-10-31T17:04:19.241Z,63.42
2022-10-31T17:07:04.972Z,61.99
2022-10-31T17:09:50.962Z,63.95
2022-10-31T17:12:37.003Z,64.28
2022-10-31T17:15:22.788Z,65.14
2022-10-31T17:18:08.872Z,65.95
2022-10-31T17:20:56.792Z,66.41
2022-10-31T17:23:42.662Z,67.52
2022-10-31T17:26:28.620Z,69.10
2022-10-31T17:29:14.513Z,66.42
2022-10-31T17:32:00.351Z,67.25
2022-10-31T17:34:46.305Z,68.62
2022-10-31T17:37:32.120Z,67.99
2022-10-31T17:40:17.958Z,67.22
2022-10-31T17:43:04.062Z,66.50
2022-10-31T17:45:50.055Z,65.63
2022-10-31T17:48:36.081Z,65.41
2022-10-31T17:51:21.803Z,65.88
2022-10-31T17:54:07.651Z,66.36
2022-10-31T17:56:53.540Z,65.83
2022-10-31T17:59:39.262Z,65.90
2022-10-31T18:02:25.288Z,66.99
2022-10-31T18:05:11.469Z,66.33
2022-10-31T18:08:00.878Z,67.01
2022-10-31T18:10:49.826Z,66.99
2022-10-31T18:13:35.630Z,66.47
2022-10-31T18:16:21.505Z,65.30
2022-10-31T18:19:07.481Z,64.02
2022-10-31T18:21:53.384Z,62.92
2022-10-31T18:24:39.318Z,62.94
2022-10-31T18:27:25.061Z,64.07
2022-10-31T18:30:10.835Z,62.71
2022-10-31T18:32:56.709Z,62.40
2022-10-31T18:35:42.762Z,61.73
2022-10-31T18:38:28.476Z,62.76
2022-10-31T18:41:14.327Z,62.74
2022-10-31T18:44:00.342Z,62.02
2022-10-31T18:46:46.150Z,62.69
2022-10-31T18:49:32.004Z,61.99
2022-10-31T18:52:17.820Z,63.25
2022-10-31T18:55:03.693Z,62.95
2022-10-31T18:57:49.739Z,63.09
2022-10-31T19:00:35.531Z,63.99
2022-10-31T19:03:25.849Z,62.83
2022-10-31T19:06:12.432Z,61.50
2022-10-31T19:08:58.251Z,62.44
2022-10-31T19:11:44.155Z,62.31
2022-10-31T19:14:30.286Z,61.08
2022-10-31T19:17:16.111Z,59.82
2022-10-31T19:20:02.046Z,59.18
2022-10-31T19:22:49.943Z,58.67
2022-10-31T19:25:35.865Z,58.06
2022-10-31T19:28:21.660Z,59.19
2022-10-31T19:31:07.419Z,60.09
2022-10-31T19:33:53.155Z,60.69
2022-10-31T19:36:39.100Z,60.42
2022-10-31T19:39:24.824Z,60.66
2022-10-31T19:42:10.667Z,60.76
2022-10-31T19:44:56.588Z,59.33
2022-10-31T19:47:42.430Z,60.07
2022-10-31T19:50:28.365Z,59.44
2022-10-31T19:53:14.146Z,59.63
2022-10-31T19:56:00.033Z,58.65
2022-10-31T19:58:46.004Z,57.85
2022-10-31T20:01:31.978Z,57.45
2022-10-31T20:04:17.829Z,57.79
2022-10-31T20:07:03.755Z,57.56
2022-10-31T20:09:49.644Z,57.10
2022-10-31T20:12:35.591Z,57.03
2022-10-31T20:15:21.407Z,57.80
2022-10-31T20:18:07.247Z,57.72
2022-10-31T20:20:53.632Z,59.24
2022-10-31T20:23:39.591Z,58.79
2022-10-31T20:26:25.476Z,58.24
2022-10-31T20:29:11.435Z,58.03
2022-10-31T20:31:57.209Z,59.40
2022-10-31T20:34:43.170Z,58.08
2022-10-31T20:37:29.159Z,57.93
2022-10-31T20:40:15.088Z,58.28
2022-10-31T20:43:01.041Z,58.21
2022-10-31T20:45:46.936Z,57.71
2022-10-31T20:48:32.984Z,58.28
2022-10-31T20:51:18.795Z,57.89
2022-10-31T20:54:04.704Z,58.62
2022-10-31T20:56:50.574Z,58.13
2022-10-31T20:59:36.425Z,58.46
2022-10-31T21:02:22.444Z,58.76
2022-10-31T21:05:10.395Z,57.70
2022-10-31T21:07:56.259Z,57.11
2022-10-31T21:10:42.170Z,57.45
2022-10-31T21:13:28.075Z,57.10
2022-10-31T21:16:13.922Z,58.06
2022-10-31T21:18:59.821Z,57.65
2022-10-31T21:21:45.612Z,56.97
2022-10-31T21:24:31.522Z,57.71
2022-10-31T21:27:17.534Z,56.77
2022-10-31T21:30:03.245Z,56.48
2022-10-31T21:32:49.118Z,55.72
2022-10-31T21:35:35.088Z,55.63
2022-10-31T21:38:21.056Z,55.54
2022-10-31T21:41:06.989Z,54.74
2022-10-31T21:43:52.796Z,54.70
2022-10-31T21:46:40.821Z,55.40
2022-10-31T21:49:26.613Z,55.03
2022-10-31T21:52:12.328Z,55.40
2022-10-31T21:54:58.271Z,56.12
2022-10-31T21:57:44.285Z,55.92
2022-10-31T22:00:30.079Z,57.73
2022-10-31T22:03:16.071Z,58.42
2022-10-31T22:06:01.829Z,58.52
2022-10-31T22:08:47.801Z,59.43
2022-10-31T22:11:33.678Z,60.00
2022-10-31T22:14:19.384Z,59.56
2022-10-31T22:17:05.379Z,59.44
2022-10-31T22:19:51.069Z,59.13
2022-10-31T22:22:36.968Z,58.59
2022-10-31T22:25:23.077Z,59.18
2022-10-31T22:28:08.909Z,57.67
2022-10-31T22:30:54.711Z,57.45
2022-10-31T22:33:40.551Z,58.36
2022-10-31T22:36:26.454Z,58.20
2022-10-31T22:39:12.346Z,58.87
2022-10-31T22:41:58.179Z,58.52
2022-10-31T22:44:43.997Z,58.68
2022-10-31T22:47:29.978Z,59.40
2022-10-31T22:50:15.788Z,59.63
2022-10-31T22:53:01.644Z,59.44
2022-10-31T22:55:47.564Z,60.40
2022-10-31T22:58:33.470Z,59.62
2022-10-31T23:01:19.566Z,60.35
2022-10-31T23:04:05.773Z,60.19
2022-10-31T23:06:51.645Z,60.06
2022-10-31T23:09:37.521Z,59.99
2022-10-31T23:12:23.259Z,60.85
2022-10-31T23:15:09.182Z,59.78
2022-10-31T23:17:55.052Z,60.10
2022-10-31T23:23:32.553Z,62.36
2022-10-31T23:26:18.495Z,60.03
2022-10-31T23:29:04.528Z,59.85
2022-10-31T23:31:50.413Z,60.47
2022-10-31T23:34:36.248Z,61.14
2022-10-31T23:37:22.135Z,60.75
2022-10-31T23:40:09.964Z,60.76
2022-10-31T23:42:55.972Z,61.87
2022-10-31T23:45:41.864Z,61.85
2022-10-31T23:48:27.795Z,62.76
2022-10-31T23:51:13.594Z,63.90
2022-10-31T23:53:59.494Z,63.73
2022-10-31T23:56:45.411Z,62.40
2022-10-31T23:59:31.223Z,64.13
